createdAt,value
2023-01-02T00:00:48.467Z,3.54
2023-01-02T00:01:52.671Z,3.55
2023-01-02T00:02:55.886Z,3.55
2023-01-02T00:03:58.842Z,3.52
2023-01-02T00:05:01.552Z,3.42
2023-01-02T00:06:06.357Z,3.54
2023-01-02T00:07:09.516Z,3.51
2023-01-02T00:08:12.396Z,3.59
2023-01-02T00:09:18.284Z,3.61
2023-01-02T00:10:21.054Z,3.62
2023-01-02T00:11:24.201Z,3.65
2023-01-02T00:12:27.283Z,3.66
2023-01-02T00:13:30.528Z,3.69
2023-01-02T00:14:33.375Z,3.72
2023-01-02T00:15:36.172Z,3.72
2023-01-02T00:16:40.982Z,3.74
2023-01-02T00:17:44.074Z,3.76
2023-01-02T00:18:47.453Z,3.74
2023-01-02T00:19:50.471Z,3.73
2023-01-02T00:20:53.536Z,3.74
2023-01-02T00:21:56.291Z,3.70
2023-01-02T00:22:59.709Z,3.75
2023-01-02T00:24:02.402Z,3.76
2023-01-02T00:25:05.545Z,3.70
2023-01-02T00:26:10.775Z,3.79
2023-01-02T00:27:14.797Z,3.81
2023-01-02T00:28:21.981Z,3.83
2023-01-02T00:29:24.706Z,3.83
2023-01-02T00:30:31.096Z,3.86
2023-01-02T00:31:38.918Z,3.85
2023-01-02T00:32:41.659Z,3.87
2023-01-02T00:33:44.780Z,3.86
2023-01-02T00:34:47.889Z,3.87
2023-01-02T00:35:50.566Z,3.91
2023-01-02T00:36:53.310Z,3.95
2023-01-02T00:37:56.155Z,3.99
2023-01-02T00:38:59.747Z,4.01
2023-01-02T00:40:02.567Z,4.03
2023-01-02T00:41:07.481Z,4.05
2023-01-02T00:42:10.205Z,4.07
2023-01-02T00:43:13.206Z,4.07
2023-01-02T00:44:16.449Z,4.12
2023-01-02T00:45:19.178Z,4.12
2023-01-02T00:46:22.291Z,4.09
2023-01-02T00:47:25.385Z,4.13
2023-01-02T00:48:29.770Z,4.12
2023-01-02T00:49:32.853Z,4.11
2023-01-02T00:50:35.865Z,4.14
2023-01-02T00:51:38.579Z,4.11
2023-01-02T00:52:41.254Z,4.08
2023-01-02T00:53:43.966Z,4.11
2023-01-02T00:54:46.963Z,4.07
2023-01-02T00:55:49.727Z,4.08
2023-01-02T00:56:52.688Z,4.08
2023-01-02T00:57:55.571Z,4.10
2023-01-02T00:58:58.343Z,4.10
2023-01-02T01:00:01.696Z,4.10
2023-01-02T01:01:04.915Z,4.13
2023-01-02T01:02:07.970Z,4.14
2023-01-02T01:03:11.047Z,4.16
2023-01-02T01:04:15.094Z,4.19
2023-01-02T01:05:18.067Z,4.19
2023-01-02T01:06:21.639Z,4.20
2023-01-02T01:07:24.303Z,4.21
2023-01-02T01:08:30.152Z,4.17
2023-01-02T01:09:33.010Z,4.23
2023-01-02T01:10:37.391Z,4.23
2023-01-02T01:11:40.091Z,4.18
2023-01-02T01:12:42.878Z,4.23
2023-01-02T01:13:46.025Z,4.24
2023-01-02T01:14:48.724Z,4.24
2023-01-02T01:15:51.757Z,4.21
2023-01-02T01:16:58.028Z,4.23
2023-01-02T01:18:00.855Z,4.24
2023-01-02T01:19:03.876Z,4.25
2023-01-02T01:20:07.801Z,4.23
2023-01-02T01:21:13.204Z,4.21
2023-01-02T01:22:15.936Z,4.18
2023-01-02T01:23:18.685Z,4.21
2023-01-02T01:24:21.416Z,4.24
2023-01-02T01:25:24.091Z,4.24
2023-01-02T01:26:27.194Z,4.25
2023-01-02T01:27:30.029Z,4.27
2023-01-02T01:28:36.647Z,4.28
2023-01-02T01:29:39.452Z,4.30
2023-01-02T01:30:42.160Z,4.31
2023-01-02T01:31:45.292Z,4.31
2023-01-02T01:32:48.018Z,4.27
2023-01-02T01:33:50.823Z,4.30
2023-01-02T01:34:53.595Z,4.33
2023-01-02T01:36:00.972Z,4.34
2023-01-02T01:37:04.229Z,4.38
2023-01-02T01:38:07.289Z,4.40
2023-01-02T01:39:10.209Z,4.40
2023-01-02T01:40:12.943Z,4.40
2023-01-02T01:41:22.258Z,4.39
2023-01-02T01:42:25.299Z,4.39
2023-01-02T01:43:44.726Z,4.41
2023-01-02T01:44:53.231Z,4.41
2023-01-02T01:45:56.435Z,4.44
2023-01-02T01:46:59.303Z,4.47
2023-01-02T01:48:04.074Z,4.47
2023-01-02T01:49:24.954Z,4.47
2023-01-02T01:50:36.242Z,4.49
2023-01-02T01:51:46.422Z,4.50
2023-01-02T01:52:55.674Z,4.53
2023-01-02T01:54:12.559Z,4.54
2023-01-02T01:55:31.716Z,4.57
2023-01-02T01:56:43.105Z,4.56
2023-01-02T01:58:08.234Z,4.49
2023-01-02T01:59:12.139Z,4.53
2023-01-02T02:00:15.976Z,4.52
2023-01-02T02:01:19.085Z,4.51
2023-01-02T02:02:23.739Z,4.54
2023-01-02T02:03:30.983Z,4.56
2023-01-02T02:04:34.340Z,4.55
2023-01-02T02:05:45.652Z,4.58
2023-01-02T02:06:51.093Z,4.52
2023-01-02T02:08:14.107Z,4.57
2023-01-02T02:09:22.886Z,4.55
2023-01-02T02:10:25.590Z,4.58
2023-01-02T02:11:29.019Z,4.56
2023-01-02T02:12:33.800Z,4.54
2023-01-02T02:13:36.631Z,4.49
2023-01-02T02:14:40.148Z,4.51
2023-01-02T02:16:07.812Z,4.58
2023-01-02T02:17:42.426Z,4.61
2023-01-02T02:19:00.339Z,4.65
2023-01-02T02:20:29.692Z,4.66
2023-01-02T02:21:54.861Z,4.65
2023-01-02T02:23:17.087Z,4.65
2023-01-02T02:24:50.338Z,4.65
2023-01-02T02:26:15.724Z,4.66
2023-01-02T02:27:37.243Z,4.68
2023-01-02T02:28:52.095Z,4.68
2023-01-02T02:30:12.174Z,4.68
2023-01-02T02:31:18.313Z,4.70
2023-01-02T02:32:37.517Z,4.71
2023-01-02T02:34:04.598Z,4.72
2023-01-02T02:35:13.152Z,4.74
2023-01-02T02:36:32.989Z,4.76
2023-01-02T02:37:49.379Z,4.78
2023-01-02T02:38:54.700Z,4.78
2023-01-02T02:40:03.498Z,4.80
2023-01-02T02:41:16.821Z,4.80
2023-01-02T02:43:02.823Z,4.81
2023-01-02T02:44:36.411Z,4.81
2023-01-02T02:46:05.360Z,4.86
2023-01-02T02:47:37.346Z,4.86
2023-01-02T02:48:53.713Z,4.86
2023-01-02T02:50:21.390Z,4.87
2023-01-02T02:51:35.848Z,4.87
2023-01-02T02:52:49.755Z,4.88
2023-01-02T02:54:02.224Z,4.89
2023-01-02T02:55:07.626Z,4.84
2023-01-02T02:56:13.834Z,4.89
2023-01-02T02:57:17.951Z,4.85
2023-01-02T02:58:23.663Z,4.80
2023-01-02T02:59:28.734Z,4.91
2023-01-02T03:00:31.597Z,4.89
2023-01-02T03:01:36.225Z,4.92
2023-01-02T03:02:39.651Z,4.93
2023-01-02T03:03:42.727Z,4.93
2023-01-02T03:04:49.850Z,4.93
2023-01-02T03:06:08.437Z,4.92
2023-01-02T03:07:27.611Z,4.96
2023-01-02T03:08:55.883Z,4.97
2023-01-02T03:10:18.447Z,4.99
2023-01-02T03:11:27.204Z,5.02
2023-01-02T03:12:41.717Z,5.04
2023-01-02T03:13:56.067Z,5.06
2023-01-02T03:15:07.790Z,5.08
2023-01-02T03:16:29.926Z,5.09
2023-01-02T03:17:42.434Z,5.11
2023-01-02T03:19:02.689Z,5.10
2023-01-02T03:20:10.263Z,5.09
2023-01-02T03:21:54.483Z,5.11
2023-01-02T03:23:04.480Z,5.14
2023-01-02T03:24:10.937Z,5.15
2023-01-02T03:25:16.135Z,5.15
2023-01-02T03:26:24.213Z,5.15
2023-01-02T03:27:32.402Z,5.16
2023-01-02T03:28:40.364Z,5.17
2023-01-02T03:29:48.088Z,5.17
2023-01-02T03:30:57.182Z,5.15
2023-01-02T03:32:02.041Z,5.18
2023-01-02T03:33:11.216Z,5.18
2023-01-02T03:34:17.526Z,5.19
2023-01-02T03:35:27.777Z,5.21
2023-01-02T03:36:33.836Z,5.20
2023-01-02T03:37:41.656Z,5.22
2023-01-02T03:38:48.785Z,5.22
2023-01-02T03:39:56.180Z,5.22
2023-01-02T03:41:24.678Z,5.22
2023-01-02T03:42:31.971Z,5.23
2023-01-02T03:43:38.471Z,5.23
2023-01-02T03:44:48.613Z,5.25
2023-01-02T03:46:04.026Z,5.24
2023-01-02T03:47:25.190Z,5.25
2023-01-02T03:48:44.094Z,5.26
2023-01-02T03:49:52.167Z,5.27
2023-01-02T03:50:59.384Z,5.29
2023-01-02T03:52:02.305Z,5.28
2023-01-02T03:53:05.568Z,5.28
2023-01-02T03:54:09.485Z,5.26
2023-01-02T03:55:12.600Z,5.19
2023-01-02T03:56:24.824Z,5.27
2023-01-02T03:57:33.337Z,5.26
2023-01-02T03:59:09.109Z,5.30
2023-01-02T04:00:17.030Z,5.28
2023-01-02T04:01:36.286Z,5.28
2023-01-02T04:02:49.597Z,5.27
2023-01-02T04:04:04.797Z,5.29
2023-01-02T04:05:31.143Z,5.27
2023-01-02T04:06:41.031Z,5.30
2023-01-02T04:07:43.730Z,5.31
2023-01-02T04:08:57.270Z,5.31
2023-01-02T04:10:00.874Z,5.30
2023-01-02T04:11:06.687Z,5.30
2023-01-02T04:12:16.563Z,5.30
2023-01-02T04:13:26.356Z,5.32
2023-01-02T04:14:40.497Z,5.30
2023-01-02T04:15:45.489Z,5.31
2023-01-02T04:16:50.833Z,5.31
2023-01-02T04:18:00.510Z,5.31
2023-01-02T04:19:13.592Z,5.31
2023-01-02T04:20:30.848Z,5.31
2023-01-02T04:21:38.049Z,5.31
2023-01-02T04:23:02.535Z,5.32
2023-01-02T04:24:16.059Z,5.31
2023-01-02T04:25:19.720Z,5.30
2023-01-02T04:26:29.275Z,5.28
2023-01-02T04:28:03.111Z,5.33
2023-01-02T04:29:06.278Z,5.31
2023-01-02T04:30:09.608Z,5.31
2023-01-02T04:31:24.927Z,5.32
2023-01-02T04:32:55.255Z,5.33
2023-01-02T04:34:01.986Z,5.33
2023-01-02T04:35:08.941Z,5.34
2023-01-02T04:36:14.051Z,5.33
2023-01-02T04:37:34.710Z,5.31
2023-01-02T04:38:45.479Z,5.37
2023-01-02T04:39:48.312Z,5.36
2023-01-02T04:40:52.448Z,5.37
2023-01-02T04:41:55.627Z,5.38
2023-01-02T04:42:58.399Z,5.38
2023-01-02T04:44:01.419Z,5.38
2023-01-02T04:45:04.972Z,5.39
2023-01-02T04:46:08.258Z,5.40
2023-01-02T04:47:13.457Z,5.39
2023-01-02T04:48:20.194Z,5.39
2023-01-02T04:49:23.242Z,5.39
2023-01-02T04:50:26.319Z,5.41
2023-01-02T04:51:29.766Z,5.40
2023-01-02T04:52:36.965Z,5.41
2023-01-02T04:53:40.399Z,5.41
2023-01-02T04:54:43.648Z,5.42
2023-01-02T04:55:46.386Z,5.42
2023-01-02T04:56:49.850Z,5.43
2023-01-02T04:57:52.518Z,5.44
2023-01-02T04:58:55.857Z,5.43
2023-01-02T04:59:58.945Z,5.45
2023-01-02T05:01:01.756Z,5.46
2023-01-02T05:02:05.104Z,5.48
2023-01-02T05:03:07.970Z,5.48
2023-01-02T05:04:10.724Z,5.46
2023-01-02T05:05:13.773Z,5.46
2023-01-02T05:06:16.827Z,5.46
2023-01-02T05:07:20.113Z,5.46
2023-01-02T05:08:23.136Z,5.46
2023-01-02T05:09:26.230Z,5.45
2023-01-02T05:10:29.353Z,5.45
2023-01-02T05:11:32.449Z,5.45
2023-01-02T05:12:37.321Z,5.47
2023-01-02T05:13:40.206Z,5.47
2023-01-02T05:14:42.951Z,5.43
2023-01-02T05:15:45.913Z,5.49
2023-01-02T05:16:48.751Z,5.48
2023-01-02T05:17:52.871Z,5.46
2023-01-02T05:18:56.671Z,5.47
2023-01-02T05:19:59.381Z,5.47
2023-01-02T05:21:06.051Z,5.47
2023-01-02T05:22:30.835Z,5.49
2023-01-02T05:23:50.063Z,5.50
2023-01-02T05:24:52.731Z,5.52
2023-01-02T05:25:55.450Z,5.52
2023-01-02T05:26:58.300Z,5.54
2023-01-02T05:28:03.065Z,5.54
2023-01-02T05:29:07.423Z,5.54
2023-01-02T05:30:10.903Z,5.54
2023-01-02T05:31:13.709Z,5.52
2023-01-02T05:32:16.921Z,5.51
2023-01-02T05:33:19.973Z,5.51
2023-01-02T05:34:23.545Z,5.52
2023-01-02T05:35:32.064Z,5.51
2023-01-02T05:36:35.558Z,5.49
2023-01-02T05:37:38.586Z,5.49
2023-01-02T05:38:41.804Z,5.50
2023-01-02T05:39:44.850Z,5.51
2023-01-02T05:40:47.791Z,5.50
2023-01-02T05:41:50.773Z,5.52
2023-01-02T05:42:53.505Z,5.52
2023-01-02T05:43:56.311Z,5.52
2023-01-02T05:44:59.716Z,5.54
2023-01-02T05:46:14.313Z,5.54
2023-01-02T05:47:17.573Z,5.54
2023-01-02T05:48:21.567Z,5.52
2023-01-02T05:49:24.263Z,5.54
2023-01-02T05:50:27.466Z,5.54
2023-01-02T05:51:30.454Z,5.54
2023-01-02T05:52:33.191Z,5.54
2023-01-02T05:53:39.109Z,5.52
2023-01-02T05:54:41.849Z,5.52
2023-01-02T05:55:45.146Z,5.52
2023-01-02T05:56:48.786Z,5.51
2023-01-02T05:57:55.203Z,5.52
2023-01-02T05:58:58.736Z,5.50
2023-01-02T06:00:01.884Z,5.50
2023-01-02T06:01:17.032Z,5.50
2023-01-02T06:02:20.857Z,5.52
2023-01-02T06:03:24.506Z,5.50
2023-01-02T06:04:27.307Z,5.49
2023-01-02T06:05:30.042Z,5.50
2023-01-02T06:06:35.841Z,5.51
2023-01-02T06:07:38.808Z,5.52
2023-01-02T06:08:43.074Z,5.51
2023-01-02T06:09:46.248Z,5.52
2023-01-02T06:10:52.296Z,5.53
2023-01-02T06:11:55.136Z,5.52
2023-01-02T06:12:58.608Z,5.52
2023-01-02T06:14:01.366Z,5.53
2023-01-02T06:15:04.911Z,5.53
2023-01-02T06:16:09.252Z,5.49
2023-01-02T06:17:12.655Z,5.54
2023-01-02T06:18:15.914Z,5.26
2023-01-02T06:19:18.828Z,5.55
2023-01-02T06:20:22.518Z,5.56
2023-01-02T06:21:25.344Z,5.56
2023-01-02T06:22:28.181Z,5.57
2023-01-02T06:23:32.246Z,5.49
2023-01-02T06:24:34.982Z,5.60
2023-01-02T06:25:37.822Z,5.59
2023-01-02T06:26:40.965Z,5.60
2023-01-02T06:27:43.712Z,5.61
2023-01-02T06:28:56.596Z,5.61
2023-01-02T06:29:59.377Z,5.62
2023-01-02T06:31:13.577Z,5.62
2023-01-02T06:32:16.402Z,5.62
2023-01-02T06:33:19.961Z,5.63
2023-01-02T06:34:25.743Z,5.64
2023-01-02T06:35:28.659Z,5.64
2023-01-02T06:36:33.903Z,5.65
2023-01-02T06:37:37.123Z,5.65
2023-01-02T06:38:41.961Z,5.64
2023-01-02T06:39:45.842Z,5.61
2023-01-02T06:40:56.876Z,5.66
2023-01-02T06:41:59.600Z,5.68
2023-01-02T06:43:02.802Z,5.68
2023-01-02T06:44:06.364Z,5.66
2023-01-02T06:45:09.757Z,5.71
2023-01-02T06:46:14.499Z,5.71
2023-01-02T06:47:17.365Z,5.71
2023-01-02T06:48:20.294Z,5.73
2023-01-02T06:49:41.351Z,5.76
2023-01-02T06:50:55.302Z,5.77
2023-01-02T06:51:58.248Z,5.77
2023-01-02T06:53:00.870Z,5.77
2023-01-02T06:54:04.034Z,5.78
2023-01-02T06:55:08.676Z,5.78
2023-01-02T06:56:16.907Z,5.78
2023-01-02T06:57:20.288Z,5.79
2023-01-02T06:58:24.575Z,5.81
2023-01-02T06:59:27.329Z,5.84
2023-01-02T07:00:30.461Z,5.86
2023-01-02T07:01:33.831Z,5.85
2023-01-02T07:02:36.897Z,5.86
2023-01-02T07:03:40.565Z,5.86
2023-01-02T07:04:43.328Z,5.87
2023-01-02T07:05:46.796Z,5.87
2023-01-02T07:06:51.163Z,5.83
2023-01-02T07:07:54.219Z,5.89
2023-01-02T07:08:59.960Z,5.90
2023-01-02T07:10:04.021Z,5.90
2023-01-02T07:11:13.922Z,5.91
2023-01-02T07:12:17.068Z,5.90
2023-01-02T07:13:20.899Z,5.90
2023-01-02T07:14:24.435Z,5.90
2023-01-02T07:15:27.259Z,5.91
2023-01-02T07:16:30.465Z,5.92
2023-01-02T07:17:34.148Z,5.93
2023-01-02T07:18:37.726Z,5.92
2023-01-02T07:19:40.541Z,5.94
2023-01-02T07:20:43.364Z,5.95
2023-01-02T07:21:46.785Z,5.94
2023-01-02T07:22:54.482Z,5.94
2023-01-02T07:23:57.458Z,5.95
2023-01-02T07:25:01.800Z,5.96
2023-01-02T07:26:06.845Z,5.97
2023-01-02T07:27:09.556Z,5.98
2023-01-02T07:28:12.904Z,5.98
2023-01-02T07:29:15.760Z,5.99
2023-01-02T07:30:19.119Z,6.00
2023-01-02T07:31:30.695Z,5.92
2023-01-02T07:32:46.211Z,6.01
2023-01-02T07:33:50.282Z,6.03
2023-01-02T07:34:53.052Z,6.05
2023-01-02T07:36:00.446Z,6.05
2023-01-02T07:37:03.289Z,6.05
2023-01-02T07:38:07.480Z,6.08
2023-01-02T07:39:10.510Z,6.10
2023-01-02T07:40:13.677Z,6.11
2023-01-02T07:41:18.595Z,6.13
2023-01-02T07:42:21.443Z,6.12
2023-01-02T07:43:24.522Z,6.14
2023-01-02T07:44:27.684Z,6.12
2023-01-02T07:45:30.411Z,6.15
2023-01-02T07:46:33.870Z,6.16
2023-01-02T07:47:36.792Z,6.17
2023-01-02T07:48:41.106Z,6.18
2023-01-02T07:49:44.415Z,6.20
2023-01-02T07:50:47.217Z,6.20
2023-01-02T07:51:50.330Z,6.23
2023-01-02T07:52:52.995Z,6.23
2023-01-02T07:53:56.780Z,6.23
2023-01-02T07:54:59.835Z,6.25
2023-01-02T07:56:03.135Z,6.26
2023-01-02T07:57:06.119Z,6.28
2023-01-02T07:58:08.960Z,6.29
2023-01-02T07:59:11.660Z,6.29
2023-01-02T08:00:16.911Z,6.30
2023-01-02T08:01:20.124Z,6.32
2023-01-02T08:02:23.141Z,6.33
2023-01-02T08:03:26.495Z,6.32
2023-01-02T08:04:29.202Z,6.32
2023-01-02T08:05:34.501Z,6.32
2023-01-02T08:06:41.480Z,6.33
2023-01-02T08:07:45.383Z,6.34
2023-01-02T08:08:48.626Z,6.31
2023-01-02T08:09:52.934Z,6.33
2023-01-02T08:10:55.762Z,6.39
2023-01-02T08:11:59.811Z,6.40
2023-01-02T08:13:02.520Z,6.42
2023-01-02T08:14:05.596Z,6.43
2023-01-02T08:15:08.771Z,6.43
2023-01-02T08:16:17.541Z,6.44
2023-01-02T08:17:20.812Z,6.40
2023-01-02T08:18:23.864Z,6.41
2023-01-02T08:19:26.780Z,6.42
2023-01-02T08:20:29.509Z,6.42
2023-01-02T08:21:32.475Z,6.44
2023-01-02T08:22:35.551Z,6.44
2023-01-02T08:23:38.368Z,6.44
2023-01-02T08:24:41.357Z,6.46
2023-01-02T08:25:44.120Z,6.46
2023-01-02T08:26:46.852Z,6.48
2023-01-02T08:27:50.263Z,6.52
2023-01-02T08:28:53.620Z,6.54
2023-01-02T08:29:56.540Z,6.56
2023-01-02T08:31:00.595Z,6.56
2023-01-02T08:32:03.530Z,6.59
2023-01-02T08:33:06.516Z,6.55
2023-01-02T08:34:14.562Z,6.60
2023-01-02T08:35:17.367Z,6.62
2023-01-02T08:36:20.557Z,6.63
2023-01-02T08:37:23.822Z,6.65
2023-01-02T08:38:28.055Z,6.66
2023-01-02T08:39:30.878Z,6.68
2023-01-02T08:40:34.059Z,6.68
2023-01-02T08:41:39.758Z,6.71
2023-01-02T08:42:43.262Z,6.74
2023-01-02T08:43:46.249Z,6.75
2023-01-02T08:44:49.401Z,6.76
2023-01-02T08:45:52.278Z,6.75
2023-01-02T08:46:55.112Z,6.46
2023-01-02T08:47:58.251Z,6.71
2023-01-02T08:49:02.384Z,6.69
2023-01-02T08:50:05.447Z,6.78
2023-01-02T08:51:10.070Z,6.77
2023-01-02T08:52:13.183Z,6.74
2023-01-02T08:53:15.968Z,6.80
2023-01-02T08:54:19.018Z,6.81
2023-01-02T08:55:22.108Z,6.81
2023-01-02T08:56:30.049Z,6.82
2023-01-02T08:57:33.420Z,6.81
2023-01-02T08:58:36.877Z,6.82
2023-01-02T08:59:39.882Z,6.82
2023-01-02T09:00:42.814Z,6.83
2023-01-02T09:01:46.453Z,6.84
2023-01-02T09:02:49.435Z,6.86
2023-01-02T09:03:53.361Z,6.89
2023-01-02T09:04:56.639Z,6.90
2023-01-02T09:05:59.346Z,6.91
2023-01-02T09:07:02.551Z,6.93
2023-01-02T09:08:05.493Z,6.94
2023-01-02T09:09:13.073Z,6.94
2023-01-02T09:10:16.197Z,6.97
2023-01-02T09:11:24.818Z,6.98
2023-01-02T09:12:28.236Z,6.99
2023-01-02T09:13:31.013Z,6.97
2023-01-02T09:14:33.651Z,6.97
2023-01-02T09:15:37.143Z,7.00
2023-01-02T09:16:40.228Z,7.01
2023-01-02T09:17:42.926Z,7.02
2023-01-02T09:18:47.378Z,7.03
2023-01-02T09:19:50.993Z,7.04
2023-01-02T09:20:55.307Z,7.05
2023-01-02T09:21:58.344Z,7.06
2023-01-02T09:23:01.648Z,7.06
2023-01-02T09:24:05.046Z,7.09
2023-01-02T09:25:08.271Z,7.11
2023-01-02T09:26:13.576Z,7.09
2023-01-02T09:27:16.374Z,7.05
2023-01-02T09:28:19.846Z,7.08
2023-01-02T09:29:22.869Z,7.07
2023-01-02T09:30:25.673Z,7.07
2023-01-02T09:31:29.202Z,7.06
2023-01-02T09:32:31.876Z,7.08
2023-01-02T09:33:35.438Z,7.06
2023-01-02T09:34:38.143Z,7.07
2023-01-02T09:35:40.936Z,7.10
2023-01-02T09:36:44.391Z,7.09
2023-01-02T09:37:47.146Z,7.09
2023-01-02T09:38:53.809Z,7.11
2023-01-02T09:39:56.920Z,7.12
2023-01-02T09:41:03.063Z,7.12
2023-01-02T09:42:08.948Z,7.12
2023-01-02T09:43:13.885Z,7.15
2023-01-02T09:44:35.474Z,7.12
2023-01-02T09:45:43.901Z,7.19
2023-01-02T09:46:54.810Z,7.21
2023-01-02T09:47:59.993Z,7.18
2023-01-02T09:49:04.166Z,7.25
2023-01-02T09:50:13.348Z,7.24
2023-01-02T09:51:16.676Z,7.25
2023-01-02T09:52:21.844Z,7.27
2023-01-02T09:53:26.511Z,7.27
2023-01-02T09:54:32.139Z,7.29
2023-01-02T09:55:55.324Z,7.31
2023-01-02T09:57:27.034Z,7.31
2023-01-02T09:58:53.499Z,7.31
2023-01-02T10:00:19.614Z,7.35
2023-01-02T10:02:01.727Z,7.35
2023-01-02T10:03:45.271Z,7.37
2023-01-02T10:04:48.056Z,7.37
2023-01-02T10:06:19.989Z,7.39
2023-01-02T10:07:39.067Z,7.37
2023-01-02T10:08:57.798Z,7.42
2023-01-02T10:10:12.929Z,7.44
2023-01-02T10:11:16.651Z,7.43
2023-01-02T10:12:40.095Z,7.43
2023-01-02T10:14:32.138Z,7.43
2023-01-02T10:15:32.899Z,7.46
2023-01-02T10:16:48.843Z,7.42
2023-01-02T10:17:57.814Z,7.49
2023-01-02T10:19:07.480Z,7.49
2023-01-02T10:20:17.670Z,7.50
2023-01-02T10:21:28.655Z,7.52
2023-01-02T10:22:42.297Z,7.53
2023-01-02T10:23:50.002Z,7.54
2023-01-02T10:25:08.420Z,7.56
2023-01-02T10:26:16.397Z,7.56
2023-01-02T10:27:26.205Z,7.55
2023-01-02T10:28:37.836Z,7.58
2023-01-02T10:29:50.639Z,7.58
2023-01-02T10:31:07.488Z,7.58
2023-01-02T10:32:17.498Z,7.55
2023-01-02T10:33:41.323Z,7.56
2023-01-02T10:35:22.110Z,7.60
2023-01-02T10:36:28.617Z,7.59
2023-01-02T10:37:31.661Z,7.57
2023-01-02T10:38:36.981Z,7.60
2023-01-02T10:39:42.707Z,7.61
2023-01-02T10:40:48.734Z,7.57
2023-01-02T10:41:58.719Z,7.63
2023-01-02T10:43:02.129Z,7.64
2023-01-02T10:44:15.814Z,7.65
2023-01-02T10:45:18.661Z,7.65
2023-01-02T10:46:21.831Z,7.67
2023-01-02T10:47:35.425Z,7.68
2023-01-02T10:48:38.995Z,7.68
2023-01-02T10:49:44.003Z,7.63
2023-01-02T10:50:53.058Z,7.67
2023-01-02T10:52:05.140Z,7.67
2023-01-02T10:53:42.078Z,7.68
2023-01-02T10:54:58.983Z,7.70
2023-01-02T10:56:04.756Z,7.70
2023-01-02T10:57:20.764Z,7.65
2023-01-02T10:58:30.251Z,7.66
2023-01-02T10:59:34.751Z,7.68
2023-01-02T11:00:37.674Z,7.68
2023-01-02T11:01:51.875Z,7.69
2023-01-02T11:03:06.674Z,7.69
2023-01-02T11:04:13.211Z,7.68
2023-01-02T11:05:26.377Z,7.70
2023-01-02T11:06:38.842Z,7.69
2023-01-02T11:07:48.997Z,7.70
2023-01-02T11:09:00.614Z,7.69
2023-01-02T11:10:05.615Z,7.69
2023-01-02T11:11:18.359Z,7.69
2023-01-02T11:12:26.968Z,7.68
2023-01-02T11:13:48.928Z,7.69
2023-01-02T11:15:12.622Z,7.71
2023-01-02T11:16:17.073Z,7.69
2023-01-02T11:17:21.981Z,7.70
2023-01-02T11:18:29.853Z,7.70
2023-01-02T11:19:46.581Z,7.72
2023-01-02T11:20:53.639Z,7.73
2023-01-02T11:21:57.643Z,7.72
2023-01-02T11:23:02.890Z,7.67
2023-01-02T11:24:15.692Z,7.71
2023-01-02T11:25:23.566Z,7.71
2023-01-02T11:26:27.674Z,7.71
2023-01-02T11:27:31.993Z,7.71
2023-01-02T11:28:41.018Z,7.69
2023-01-02T11:29:48.420Z,7.70
2023-01-02T11:30:55.557Z,7.70
2023-01-02T11:32:02.387Z,7.69
2023-01-02T11:33:28.267Z,7.68
2023-01-02T11:34:36.233Z,7.70
2023-01-02T11:35:55.474Z,7.68
2023-01-02T11:37:12.274Z,7.70
2023-01-02T11:38:29.663Z,7.69
2023-01-02T11:39:34.724Z,7.68
2023-01-02T11:40:37.708Z,7.68
2023-01-02T11:42:19.882Z,7.70
2023-01-02T11:43:47.466Z,7.71
2023-01-02T11:45:06.030Z,7.73
2023-01-02T11:46:21.700Z,7.75
2023-01-02T11:47:39.663Z,7.77
2023-01-02T11:48:47.604Z,7.77
2023-01-02T11:49:56.771Z,7.78
2023-01-02T11:50:59.807Z,7.78
2023-01-02T11:52:04.513Z,7.82
2023-01-02T11:53:17.660Z,7.75
2023-01-02T11:54:27.290Z,7.84
2023-01-02T11:55:29.931Z,7.84
2023-01-02T11:56:39.911Z,7.85
2023-01-02T11:57:57.675Z,7.87
2023-01-02T11:59:14.746Z,7.87
2023-01-02T12:00:20.592Z,7.89
2023-01-02T12:01:45.085Z,7.89
2023-01-02T12:02:51.040Z,7.90
2023-01-02T12:03:55.260Z,7.91
2023-01-02T12:04:58.260Z,7.93
2023-01-02T12:06:15.831Z,7.93
2023-01-02T12:07:28.256Z,7.93
2023-01-02T12:09:13.849Z,7.92
2023-01-02T12:10:29.307Z,7.94
2023-01-02T12:12:09.799Z,7.97
2023-01-02T12:13:38.190Z,7.96
2023-01-02T12:15:07.499Z,7.99
2023-01-02T12:16:28.868Z,8.00
2023-01-02T12:17:44.024Z,7.99
2023-01-02T12:19:11.537Z,7.99
2023-01-02T12:20:20.435Z,8.02
2023-01-02T12:21:39.954Z,7.99
2023-01-02T12:22:57.760Z,7.94
2023-01-02T12:24:21.890Z,7.96
2023-01-02T12:26:05.588Z,7.97
2023-01-02T12:27:24.322Z,7.92
2023-01-02T12:28:44.295Z,7.91
2023-01-02T12:30:11.069Z,7.90
2023-01-02T12:31:29.504Z,7.93
2023-01-02T12:33:10.248Z,7.93
2023-01-02T12:34:39.420Z,7.91
2023-01-02T12:36:07.891Z,7.93
2023-01-02T12:37:20.340Z,7.93
2023-01-02T12:38:35.954Z,7.95
2023-01-02T12:39:50.942Z,7.95
2023-01-02T12:41:14.746Z,7.96
2023-01-02T12:42:35.260Z,7.94
2023-01-02T12:43:57.231Z,7.95
2023-01-02T12:45:01.138Z,7.95
2023-01-02T12:46:16.501Z,7.90
2023-01-02T12:48:07.873Z,7.93
2023-01-02T12:49:39.853Z,7.94
2023-01-02T12:51:18.210Z,7.94
2023-01-02T12:52:24.246Z,7.90
2023-01-02T12:53:34.200Z,7.91
2023-01-02T12:54:52.616Z,7.92
2023-01-02T12:56:04.631Z,7.91
2023-01-02T12:57:21.920Z,7.87
2023-01-02T12:58:32.492Z,7.90
2023-01-02T13:00:13.088Z,7.89
2023-01-02T13:01:23.326Z,7.90
2023-01-02T13:02:59.792Z,7.91
2023-01-02T13:09:32.402Z,8.49
2023-01-02T13:10:36.004Z,8.49
2023-01-02T13:12:01.874Z,7.96
2023-01-02T13:13:04.897Z,7.91
2023-01-02T13:14:15.615Z,7.90
2023-01-02T13:15:22.869Z,7.89
2023-01-02T13:16:26.852Z,7.88
2023-01-02T13:17:50.861Z,7.88
2023-01-02T13:19:10.044Z,7.88
2023-01-02T13:20:13.096Z,7.87
2023-01-02T13:21:28.168Z,7.86
2023-01-02T13:22:55.010Z,7.84
2023-01-02T13:23:59.624Z,7.85
2023-01-02T13:25:04.269Z,7.80
2023-01-02T13:26:17.497Z,7.85
2023-01-02T13:27:20.366Z,7.86
2023-01-02T13:28:25.147Z,7.86
2023-01-02T13:29:54.378Z,7.88
2023-01-02T13:31:35.198Z,7.89
2023-01-02T13:32:30.653Z,7.90
2023-01-02T13:33:42.337Z,7.90
2023-01-02T13:34:52.527Z,7.91
2023-01-02T13:35:55.653Z,7.90
2023-01-02T13:37:13.434Z,7.88
2023-01-02T13:38:18.485Z,7.92
2023-01-02T13:39:27.199Z,7.91
2023-01-02T13:40:35.350Z,7.91
2023-01-02T13:42:09.463Z,7.90
2023-01-02T13:43:21.669Z,7.90
2023-01-02T13:44:33.888Z,7.91
2023-01-02T13:45:46.458Z,7.92
2023-01-02T13:47:04.731Z,7.91
2023-01-02T13:48:38.360Z,7.92
2023-01-02T13:49:41.982Z,7.91
2023-01-02T13:50:46.055Z,7.91
2023-01-02T13:51:49.542Z,7.92
2023-01-02T13:53:05.820Z,7.92
2023-01-02T13:54:18.801Z,7.91
2023-01-02T13:55:22.200Z,7.90
2023-01-02T13:56:29.474Z,7.89
2023-01-02T13:57:32.519Z,7.90
2023-01-02T13:58:43.189Z,7.91
2023-01-02T14:00:04.379Z,7.90
2023-01-02T14:01:21.107Z,7.88
2023-01-02T14:02:24.334Z,7.88
2023-01-02T14:03:32.688Z,7.88
2023-01-02T14:04:37.287Z,7.89
2023-01-02T14:06:01.397Z,7.88
2023-01-02T14:07:29.664Z,7.89
2023-01-02T14:08:42.506Z,7.89
2023-01-02T14:10:14.803Z,7.88
2023-01-02T14:11:27.689Z,7.88
2023-01-02T14:12:30.473Z,7.88
2023-01-02T14:13:47.335Z,7.87
2023-01-02T14:14:52.807Z,7.88
2023-01-02T14:16:03.244Z,7.88
2023-01-02T14:17:25.208Z,7.88
2023-01-02T14:18:30.930Z,7.87
2023-01-02T14:19:34.822Z,7.88
2023-01-02T14:20:44.461Z,7.87
2023-01-02T14:21:52.854Z,7.86
2023-01-02T14:23:08.984Z,7.87
2023-01-02T14:24:17.789Z,7.87
2023-01-02T14:25:22.916Z,7.87
2023-01-02T14:26:32.551Z,7.84
2023-01-02T14:27:37.056Z,7.85
2023-01-02T14:28:42.312Z,7.84
2023-01-02T14:29:53.500Z,7.84
2023-01-02T14:30:58.315Z,7.83
2023-01-02T14:32:09.011Z,7.82
2023-01-02T14:33:18.943Z,7.77
2023-01-02T14:34:25.801Z,7.81
2023-01-02T14:35:34.506Z,7.78
2023-01-02T14:36:44.252Z,7.77
2023-01-02T14:37:50.880Z,7.77
2023-01-02T14:38:56.587Z,7.78
2023-01-02T14:40:12.078Z,7.76
2023-01-02T14:42:09.639Z,7.75
2023-01-02T14:43:30.243Z,7.75
2023-01-02T14:44:34.669Z,7.73
2023-01-02T14:45:44.315Z,7.73
2023-01-02T14:46:49.405Z,7.72
2023-01-02T14:47:58.785Z,7.72
2023-01-02T14:49:25.437Z,7.72
2023-01-02T14:50:34.583Z,7.71
2023-01-02T14:51:38.209Z,7.70
2023-01-02T14:52:45.416Z,7.70
2023-01-02T14:54:21.104Z,7.68
2023-01-02T14:55:28.746Z,7.68
2023-01-02T14:56:37.147Z,7.67
2023-01-02T14:57:43.081Z,7.66
2023-01-02T14:58:48.399Z,7.67
2023-01-02T14:59:53.431Z,7.67
2023-01-02T15:01:04.142Z,7.66
2023-01-02T15:02:18.249Z,7.66
2023-01-02T15:03:30.062Z,7.65
2023-01-02T15:05:03.435Z,7.67
2023-01-02T15:06:18.117Z,7.65
2023-01-02T15:07:40.754Z,7.65
2023-01-02T15:08:50.515Z,7.62
2023-01-02T15:09:59.020Z,7.61
2023-01-02T15:11:22.217Z,7.62
2023-01-02T15:12:46.324Z,7.62
2023-01-02T15:14:04.101Z,7.61
2023-01-02T15:15:17.832Z,7.61
2023-01-02T15:16:23.400Z,7.60
2023-01-02T15:17:27.283Z,7.55
2023-01-02T15:18:34.095Z,7.59
2023-01-02T15:19:42.639Z,7.59
2023-01-02T15:20:50.981Z,7.58
2023-01-02T15:21:55.562Z,7.58
2023-01-02T15:22:59.116Z,7.58
2023-01-02T15:24:07.761Z,7.57